createdAt,value
2018-02-14T00:00:23.425Z,981.81
2018-02-14T00:01:23.416Z,981.81
2018-02-14T00:02:23.379Z,981.80
2018-02-14T00:03:23.287Z,981.87
2018-02-14T00:04:23.299Z,981.82
2018-02-14T00:05:23.171Z,981.82
2018-02-14T00:06:23.096Z,981.84
2018-02-14T00:07:23.137Z,981.86
2018-02-14T00:08:23.215Z,981.86
2018-02-14T00:09:23.033Z,981.85
2018-02-14T00:10:22.952Z,981.84
2018-02-14T00:11:23.073Z,981.85
2018-02-14T00:12:22.805Z,981.81
2018-02-14T00:13:22.937Z,981.88
2018-02-14T00:14:23.387Z,981.86
2018-02-14T00:15:22.739Z,981.82
2018-02-14T00:16:22.755Z,981.86
2018-02-14T00:17:22.587Z,981.87
2018-02-14T00:18:22.527Z,981.87
2018-02-14T00:19:23.381Z,981.82
2018-02-14T00:20:22.453Z,981.88
2018-02-14T00:21:22.359Z,981.90
2018-02-14T00:22:22.883Z,981.85
2018-02-14T00:23:22.373Z,981.88
2018-02-14T00:24:22.256Z,981.86
2018-02-14T00:25:22.318Z,981.90
2018-02-14T00:26:22.264Z,981.94
2018-02-14T00:27:22.232Z,981.90
2018-02-14T00:28:22.031Z,981.94
2018-02-14T00:29:22.897Z,981.93
2018-02-14T00:30:21.962Z,981.95
2018-02-14T00:31:21.851Z,981.94
2018-02-14T00:32:21.920Z,981.94
2018-02-14T00:33:21.804Z,981.93
2018-02-14T00:34:21.864Z,981.96
2018-02-14T00:35:21.709Z,981.94
2018-02-14T00:36:21.673Z,981.97
2018-02-14T00:37:21.539Z,982.01
2018-02-14T00:38:21.645Z,981.99
2018-02-14T00:39:21.467Z,981.98
2018-02-14T00:40:21.567Z,982.00
2018-02-14T00:41:21.489Z,982.02
2018-02-14T00:42:21.305Z,982.00
2018-02-14T00:43:21.411Z,982.04
2018-02-14T00:44:21.290Z,982.02
2018-02-14T00:45:21.195Z,982.07
2018-02-14T00:46:21.132Z,982.05
2018-02-14T00:47:21.241Z,982.07
2018-02-14T00:48:21.041Z,982.05
2018-02-14T00:49:21.030Z,982.07
2018-02-14T00:50:21.028Z,982.10
2018-02-14T00:51:20.845Z,982.08
2018-02-14T00:52:20.849Z,982.07
2018-02-14T00:53:20.742Z,982.07
2018-02-14T00:54:20.784Z,982.10
2018-02-14T00:55:20.746Z,982.07
2018-02-14T00:56:21.386Z,982.09
2018-02-14T00:57:20.684Z,982.06
2018-02-14T00:58:20.661Z,982.07
2018-02-14T00:59:20.511Z,982.10
2018-02-14T01:00:20.428Z,982.08
2018-02-14T01:01:20.576Z,982.05
2018-02-14T01:02:20.367Z,982.09
2018-02-14T01:03:20.294Z,982.13
2018-02-14T01:04:20.266Z,982.14
2018-02-14T01:05:20.212Z,982.12
2018-02-14T01:06:20.091Z,982.15
2018-02-14T01:07:20.164Z,982.15
2018-02-14T01:08:20.069Z,982.13
2018-02-14T01:09:19.969Z,982.14
2018-02-14T01:10:20.092Z,982.16
2018-02-14T01:11:19.948Z,982.14
2018-02-14T01:12:19.774Z,982.14
2018-02-14T01:13:19.745Z,982.15
2018-02-14T01:14:19.727Z,982.13
2018-02-14T01:15:19.634Z,982.15
2018-02-14T01:16:19.603Z,982.15
2018-02-14T01:17:19.665Z,982.15
2018-02-14T01:18:19.544Z,982.13
2018-02-14T01:19:19.624Z,982.16
2018-02-14T01:20:19.469Z,982.17
2018-02-14T01:21:19.360Z,982.15
2018-02-14T01:22:19.421Z,982.17
2018-02-14T01:23:19.445Z,982.16
2018-02-14T01:24:19.293Z,982.20
2018-02-14T01:25:19.136Z,982.16
2018-02-14T01:26:19.139Z,982.17
2018-02-14T01:27:19.092Z,982.12
2018-02-14T01:28:19.180Z,982.10
2018-02-14T01:29:19.026Z,982.12
2018-02-14T01:30:18.889Z,982.14
2018-02-14T01:31:18.896Z,982.14
2018-02-14T01:32:18.830Z,982.12
2018-02-14T01:33:19.397Z,982.13
2018-02-14T01:34:18.748Z,982.13
2018-02-14T01:35:18.634Z,982.16
2018-02-14T01:36:18.563Z,982.15
2018-02-14T01:37:18.755Z,982.13
2018-02-14T01:38:18.466Z,982.15
2018-02-14T01:39:18.430Z,982.13
2018-02-14T01:40:18.403Z,982.14
2018-02-14T01:41:18.393Z,982.18
2018-02-14T01:42:18.381Z,982.19
2018-02-14T01:43:18.246Z,982.22
2018-02-14T01:44:18.282Z,982.22
2018-02-14T01:45:18.103Z,982.16
2018-02-14T01:46:18.130Z,982.19
2018-02-14T01:47:18.164Z,982.20
2018-02-14T01:48:17.970Z,982.23
2018-02-14T01:49:17.935Z,982.19
2018-02-14T01:50:18.090Z,982.21
2018-02-14T01:51:17.825Z,982.20
2018-02-14T01:52:17.812Z,982.23
2018-02-14T01:53:17.737Z,982.26
2018-02-14T01:54:17.657Z,982.23
2018-02-14T01:55:17.624Z,982.23
2018-02-14T01:56:17.603Z,982.23
2018-02-14T01:57:17.721Z,982.25
2018-02-14T01:58:17.467Z,982.27
2018-02-14T01:59:17.462Z,982.29
2018-02-14T02:00:17.420Z,982.23
2018-02-14T02:01:17.314Z,982.30
2018-02-14T02:02:17.460Z,982.27
2018-02-14T02:03:17.898Z,982.31
2018-02-14T02:04:17.174Z,982.27
2018-02-14T02:05:17.101Z,982.31
2018-02-14T02:06:17.108Z,982.27
2018-02-14T02:07:17.154Z,982.30
2018-02-14T02:08:17.150Z,982.28
2018-02-14T02:09:16.952Z,982.31
2018-02-14T02:10:16.839Z,982.30
2018-02-14T02:11:16.942Z,982.33
2018-02-14T02:12:16.765Z,982.31
2018-02-14T02:13:16.745Z,982.33
2018-02-14T02:14:16.802Z,982.36
2018-02-14T02:15:16.621Z,982.33
2018-02-14T02:16:16.688Z,982.42
2018-02-14T02:17:16.522Z,982.36
2018-02-14T02:18:16.498Z,982.42
2018-02-14T02:19:16.894Z,982.39
2018-02-14T02:20:16.555Z,982.42
2018-02-14T02:21:16.890Z,982.43
2018-02-14T02:22:16.219Z,982.43
2018-02-14T02:23:16.388Z,982.47
2018-02-14T02:24:16.165Z,982.49
2018-02-14T02:25:16.068Z,982.50
2018-02-14T02:26:17.992Z,982.48
2018-02-14T02:27:15.994Z,982.48
2018-02-14T02:28:16.021Z,982.46
2018-02-14T02:29:15.922Z,982.48
2018-02-14T02:30:15.961Z,982.48
2018-02-14T02:31:15.829Z,982.46
2018-02-14T02:32:15.755Z,982.46
2018-02-14T02:33:15.667Z,982.48
2018-02-14T02:34:15.856Z,982.47
2018-02-14T02:35:15.604Z,982.47
2018-02-14T02:36:15.580Z,982.47
2018-02-14T02:37:15.483Z,982.48
2018-02-14T02:38:15.547Z,982.50
2018-02-14T02:39:15.542Z,982.48
2018-02-14T02:40:15.520Z,982.47
2018-02-14T02:41:15.494Z,982.48
2018-02-14T02:42:15.220Z,982.46
2018-02-14T02:43:15.221Z,982.46
2018-02-14T02:44:15.135Z,982.44
2018-02-14T02:45:15.300Z,982.45
2018-02-14T02:46:15.191Z,982.48
2018-02-14T02:47:15.024Z,982.44
2018-02-14T02:48:15.043Z,982.45
2018-02-14T02:49:14.970Z,982.46
2018-02-14T02:50:14.842Z,982.43
2018-02-14T02:51:14.788Z,982.47
2018-02-14T02:52:14.825Z,982.46
2018-02-14T02:53:14.690Z,982.46
2018-02-14T02:54:14.691Z,982.49
2018-02-14T02:55:14.693Z,982.51
2018-02-14T02:56:14.558Z,982.50
2018-02-14T02:57:14.605Z,982.50
2018-02-14T02:58:14.554Z,982.51
2018-02-14T02:59:14.392Z,982.49
2018-02-14T03:00:14.362Z,982.50
2018-02-14T03:01:14.249Z,982.52
2018-02-14T03:02:14.891Z,982.52
2018-02-14T03:03:14.172Z,982.50
2018-02-14T03:04:14.902Z,982.49
2018-02-14T03:05:14.098Z,982.54
2018-02-14T03:06:14.160Z,982.53
2018-02-14T03:07:14.887Z,982.59
2018-02-14T03:08:14.022Z,982.57
2018-02-14T03:09:13.848Z,982.57
2018-02-14T03:10:13.823Z,982.56
2018-02-14T03:11:13.921Z,982.57
2018-02-14T03:12:13.845Z,982.56
2018-02-14T03:13:13.845Z,982.64
2018-02-14T03:14:14.385Z,982.61
2018-02-14T03:15:14.389Z,982.62
2018-02-14T03:16:13.540Z,982.64
2018-02-14T03:17:13.468Z,982.66
2018-02-14T03:18:13.541Z,982.64
2018-02-14T03:19:13.331Z,982.70
2018-02-14T03:20:13.887Z,982.66
2018-02-14T03:21:13.894Z,982.68
2018-02-14T03:22:13.326Z,982.73
2018-02-14T03:23:13.140Z,982.74
2018-02-14T03:24:13.119Z,982.75
2018-02-14T03:25:13.170Z,982.76
2018-02-14T03:26:12.977Z,982.79
2018-02-14T03:27:13.116Z,982.82
2018-02-14T03:28:12.984Z,982.82
2018-02-14T03:29:12.923Z,982.86
2018-02-14T03:30:12.764Z,982.86
2018-02-14T03:31:12.706Z,982.86
2018-02-14T03:32:12.787Z,982.83
2018-02-14T03:33:12.689Z,982.88
2018-02-14T03:34:12.743Z,982.89
2018-02-14T03:35:12.687Z,982.88
2018-02-14T03:36:13.387Z,982.89
2018-02-14T03:37:12.520Z,982.89
2018-02-14T03:38:12.417Z,982.89
2018-02-14T03:39:12.356Z,982.87
2018-02-14T03:40:12.297Z,982.87
2018-02-14T03:41:12.377Z,982.93
2018-02-14T03:42:12.305Z,982.90
2018-02-14T03:43:12.227Z,982.91
2018-02-14T03:44:12.895Z,982.90
2018-02-14T03:45:12.120Z,982.92
2018-02-14T03:46:11.992Z,982.93
2018-02-14T03:47:12.384Z,982.94
2018-02-14T03:48:11.847Z,982.98
2018-02-14T03:49:12.008Z,982.94
2018-02-14T03:50:11.955Z,982.96
2018-02-14T03:51:11.788Z,982.93
2018-02-14T03:52:11.904Z,982.94
2018-02-14T03:53:11.627Z,982.94
2018-02-14T03:54:11.804Z,982.98
2018-02-14T03:55:11.512Z,982.94
2018-02-14T03:56:11.587Z,982.98
2018-02-14T03:57:11.539Z,982.98
2018-02-14T03:58:11.517Z,983.01
2018-02-14T03:59:11.448Z,983.02
2018-02-14T04:00:11.316Z,983.07
2018-02-14T04:01:11.429Z,983.02
2018-02-14T04:02:11.213Z,983.07
2018-02-14T04:03:11.203Z,983.10
2018-02-14T04:04:11.125Z,983.08
2018-02-14T04:05:11.118Z,983.06
2018-02-14T04:06:11.089Z,983.05
2018-02-14T04:07:11.037Z,983.11
2018-02-14T04:08:10.980Z,983.10
2018-02-14T04:09:10.883Z,983.07
2018-02-14T04:10:10.873Z,983.12
2018-02-14T04:11:10.768Z,983.14
2018-02-14T04:12:10.734Z,983.15
2018-02-14T04:13:10.597Z,983.18
2018-02-14T04:14:10.664Z,983.17
2018-02-14T04:15:10.613Z,983.21
2018-02-14T04:16:10.579Z,983.23
2018-02-14T04:17:10.553Z,983.24
2018-02-14T04:18:10.298Z,983.24
2018-02-14T04:19:10.306Z,983.29
2018-02-14T04:20:10.287Z,983.30
2018-02-14T04:21:10.177Z,983.30
2018-02-14T04:22:10.136Z,983.30
2018-02-14T04:23:10.209Z,983.30
2018-02-14T04:24:09.989Z,983.31
2018-02-14T04:25:11.045Z,983.34
2018-02-14T04:26:10.029Z,983.32
2018-02-14T04:27:10.394Z,983.31
2018-02-14T04:28:09.808Z,983.37
2018-02-14T04:29:09.771Z,983.40
2018-02-14T04:30:09.699Z,983.43
2018-02-14T04:31:09.836Z,983.38
2018-02-14T04:32:09.587Z,983.42
2018-02-14T04:33:09.543Z,983.39
2018-02-14T04:34:09.649Z,983.44
2018-02-14T04:35:09.526Z,983.44
2018-02-14T04:36:09.890Z,983.45
2018-02-14T04:37:09.315Z,983.53
2018-02-14T04:38:09.506Z,983.49
2018-02-14T04:39:09.247Z,983.52
2018-02-14T04:40:09.349Z,983.55
2018-02-14T04:41:09.176Z,983.54
2018-02-14T04:42:09.213Z,983.56
2018-02-14T04:43:09.168Z,983.60
2018-02-14T04:44:08.974Z,983.59
2018-02-14T04:45:08.949Z,983.58
2018-02-14T04:46:08.922Z,983.64
2018-02-14T04:47:09.386Z,983.64
2018-02-14T04:48:08.946Z,983.62
2018-02-14T04:49:08.778Z,983.63
2018-02-14T04:50:09.388Z,983.66
2018-02-14T04:51:08.623Z,983.65
2018-02-14T04:52:09.388Z,983.66
2018-02-14T04:53:08.531Z,983.66
2018-02-14T04:54:08.449Z,983.66
2018-02-14T04:55:08.516Z,983.73
2018-02-14T04:56:08.406Z,983.73
2018-02-14T04:57:08.318Z,983.72
2018-02-14T04:58:08.295Z,983.75
2018-02-14T04:59:08.890Z,983.74
2018-02-14T05:00:08.135Z,983.73
2018-02-14T05:01:08.191Z,983.79
2018-02-14T05:02:08.053Z,983.74
2018-02-14T05:03:08.068Z,983.76
2018-02-14T05:04:08.080Z,983.78
2018-02-14T05:05:07.897Z,983.77
2018-02-14T05:06:07.973Z,983.78
2018-02-14T05:07:08.389Z,983.82
2018-02-14T05:08:08.383Z,983.83
2018-02-14T05:09:07.732Z,983.85
2018-02-14T05:10:07.660Z,983.81
2018-02-14T05:11:07.766Z,983.85
2018-02-14T05:12:07.655Z,983.83
2018-02-14T05:13:08.389Z,983.87
2018-02-14T05:14:07.546Z,983.84
2018-02-14T05:15:07.365Z,983.85
2018-02-14T05:16:07.328Z,983.86
2018-02-14T05:17:07.276Z,983.87
2018-02-14T05:18:07.375Z,983.87
2018-02-14T05:19:07.231Z,983.91
2018-02-14T05:20:07.208Z,983.92
2018-02-14T05:21:07.251Z,983.92
2018-02-14T05:22:07.030Z,983.95
2018-02-14T05:23:06.995Z,983.99
2018-02-14T05:24:06.973Z,984.03
2018-02-14T05:25:07.389Z,984.02
2018-02-14T05:26:06.893Z,984.00
2018-02-14T05:27:06.767Z,984.05
2018-02-14T05:28:06.929Z,984.03
2018-02-14T05:29:06.696Z,984.05
2018-02-14T05:30:06.597Z,984.04
2018-02-14T05:31:06.535Z,984.04
2018-02-14T05:32:06.605Z,984.06
2018-02-14T05:33:06.464Z,984.02
2018-02-14T05:34:06.381Z,984.07
2018-02-14T05:35:06.351Z,984.11
2018-02-14T05:36:06.289Z,984.05
2018-02-14T05:37:06.465Z,984.10
2018-02-14T05:38:06.236Z,984.08
2018-02-14T05:39:06.360Z,984.08
2018-02-14T05:40:06.119Z,984.06
2018-02-14T05:41:06.175Z,984.07
2018-02-14T05:42:06.084Z,984.08
2018-02-14T05:43:06.893Z,984.04
2018-02-14T05:44:05.885Z,984.11
2018-02-14T05:45:05.851Z,984.07
2018-02-14T05:46:05.946Z,984.07
2018-02-14T05:47:05.728Z,984.03
2018-02-14T05:48:05.657Z,984.06
2018-02-14T05:49:05.659Z,984.09
2018-02-14T05:50:05.738Z,984.07
2018-02-14T05:51:05.518Z,984.08
2018-02-14T05:52:05.479Z,984.10
2018-02-14T05:53:05.888Z,984.14
2018-02-14T05:54:05.361Z,984.13
2018-02-14T05:55:05.890Z,984.14
2018-02-14T05:56:05.248Z,984.12
2018-02-14T05:57:05.274Z,984.12
2018-02-14T05:58:05.326Z,984.14
2018-02-14T05:59:05.071Z,984.16
2018-02-14T06:00:05.189Z,984.15
2018-02-14T06:01:05.890Z,984.15
2018-02-14T06:02:05.083Z,984.16
2018-02-14T06:03:05.046Z,984.17
2018-02-14T06:04:04.840Z,984.23
2018-02-14T06:05:04.846Z,984.21
2018-02-14T06:06:04.752Z,984.23
2018-02-14T06:07:04.680Z,984.24
2018-02-14T06:08:04.771Z,984.26
2018-02-14T06:09:04.789Z,984.25
2018-02-14T06:10:04.570Z,984.29
2018-02-14T06:11:04.529Z,984.26
2018-02-14T06:12:04.640Z,984.35
2018-02-14T06:13:04.386Z,984.34
2018-02-14T06:14:04.412Z,984.37
2018-02-14T06:15:04.262Z,984.39
2018-02-14T06:16:04.378Z,984.40
2018-02-14T06:17:04.339Z,984.44
2018-02-14T06:18:04.133Z,984.46
2018-02-14T06:19:04.116Z,984.45
2018-02-14T06:20:03.987Z,984.46
2018-02-14T06:21:03.986Z,984.51
2018-02-14T06:22:03.948Z,984.52
2018-02-14T06:23:03.885Z,984.55
2018-02-14T06:24:03.808Z,984.54
2018-02-14T06:25:03.772Z,984.58
2018-02-14T06:26:03.884Z,984.55
2018-02-14T06:27:03.793Z,984.52
2018-02-14T06:28:03.694Z,984.58
2018-02-14T06:29:03.556Z,984.55
2018-02-14T06:30:04.398Z,984.56
2018-02-14T06:31:03.439Z,984.56
2018-02-14T06:32:03.888Z,984.56
2018-02-14T06:33:03.312Z,984.54
2018-02-14T06:34:03.517Z,984.53
2018-02-14T06:35:03.372Z,984.52
2018-02-14T06:36:03.368Z,984.52
2018-02-14T06:37:03.275Z,984.54
2018-02-14T06:38:03.896Z,984.54
2018-02-14T06:39:03.053Z,984.57
2018-02-14T06:40:03.030Z,984.59
2018-02-14T06:41:02.912Z,984.66
2018-02-14T06:42:02.901Z,984.62
2018-02-14T06:43:02.868Z,984.60
2018-02-14T06:44:04.014Z,984.68
2018-02-14T06:45:02.809Z,984.67
2018-02-14T06:46:02.718Z,984.74
2018-02-14T06:47:02.756Z,984.77
2018-02-14T06:48:02.619Z,984.78
2018-02-14T06:49:02.657Z,984.79
2018-02-14T06:50:02.605Z,984.82
2018-02-14T06:51:02.903Z,984.86
2018-02-14T06:52:02.503Z,984.92
2018-02-14T06:53:02.532Z,984.94
2018-02-14T06:54:02.320Z,985.00
2018-02-14T06:55:02.180Z,985.01
2018-02-14T06:56:02.318Z,985.00
2018-02-14T06:57:02.887Z,985.06
2018-02-14T06:58:02.073Z,985.10
2018-02-14T06:59:02.040Z,985.08
2018-02-14T07:00:01.996Z,985.09
2018-02-14T07:01:02.052Z,985.13
2018-02-14T07:02:01.867Z,985.13
2018-02-14T07:03:01.900Z,985.11
2018-02-14T07:04:01.874Z,985.11
2018-02-14T07:05:01.713Z,985.14
2018-02-14T07:06:01.636Z,985.15
2018-02-14T07:07:01.733Z,985.16
2018-02-14T07:08:01.566Z,985.18
2018-02-14T07:09:01.537Z,985.20
2018-02-14T07:10:01.555Z,985.21
2018-02-14T07:11:01.408Z,985.23
2018-02-14T07:12:01.375Z,985.24
2018-02-14T07:13:01.410Z,985.24
2018-02-14T07:14:01.286Z,985.27
2018-02-14T07:15:01.322Z,985.27
2018-02-14T07:16:01.259Z,985.27
2018-02-14T07:17:01.237Z,985.26
2018-02-14T07:18:01.153Z,985.31
2018-02-14T07:19:01.018Z,985.35
2018-02-14T07:20:00.911Z,985.33
2018-02-14T07:21:00.896Z,985.35
2018-02-14T07:22:00.984Z,985.36
2018-02-14T07:23:00.919Z,985.38
2018-02-14T07:24:00.904Z,985.34
2018-02-14T07:25:00.679Z,985.35
2018-02-14T07:26:01.389Z,985.39
2018-02-14T07:27:00.674Z,985.41
2018-02-14T07:28:00.520Z,985.44
2018-02-14T07:29:00.632Z,985.47
2018-02-14T07:30:00.403Z,985.47
2018-02-14T07:31:00.890Z,985.50
2018-02-14T07:32:00.496Z,985.53
2018-02-14T07:33:00.226Z,985.51
2018-02-14T07:34:00.245Z,985.50
2018-02-14T07:35:00.161Z,985.54
2018-02-14T07:36:00.237Z,985.54
2018-02-14T07:37:00.098Z,985.55
2018-02-14T07:38:00.089Z,985.52
2018-02-14T07:38:59.964Z,985.53
2018-02-14T07:39:59.922Z,985.52
2018-02-14T07:41:00.045Z,985.50
2018-02-14T07:42:00.009Z,985.46
2018-02-14T07:42:59.723Z,985.47
2018-02-14T07:44:00.392Z,985.48
2018-02-14T07:44:59.773Z,985.48
2018-02-14T07:45:59.624Z,985.51
2018-02-14T07:46:59.554Z,985.54
2018-02-14T07:47:59.646Z,985.53
2018-02-14T07:48:59.479Z,985.54
2018-02-14T07:49:59.889Z,985.54
2018-02-14T07:50:59.367Z,985.57
2018-02-14T07:51:59.467Z,985.59
2018-02-14T07:52:59.358Z,985.57
2018-02-14T07:53:59.257Z,985.58
2018-02-14T07:54:59.224Z,985.62
2018-02-14T07:55:59.262Z,985.59
2018-02-14T07:56:59.051Z,985.56
2018-02-14T07:57:59.169Z,985.58
2018-02-14T07:58:59.071Z,985.60
2018-02-14T07:59:58.940Z,985.57
2018-02-14T08:00:58.866Z,985.59
2018-02-14T08:01:58.834Z,985.61
2018-02-14T08:02:58.757Z,985.56
2018-02-14T08:03:58.830Z,985.62
2018-02-14T08:04:58.855Z,985.62
2018-02-14T08:05:58.676Z,985.62
2018-02-14T08:06:58.567Z,985.63
2018-02-14T08:07:58.693Z,985.67
2018-02-14T08:08:58.632Z,985.64
2018-02-14T08:09:59.391Z,985.62
2018-02-14T08:10:58.541Z,985.67
2018-02-14T08:11:58.494Z,985.63
2018-02-14T08:12:58.458Z,985.67
2018-02-14T08:13:58.406Z,985.71
2018-02-14T08:14:58.259Z,985.70
2018-02-14T08:15:58.892Z,985.67
2018-02-14T08:16:58.162Z,985.69
2018-02-14T08:17:58.178Z,985.74
2018-02-14T08:18:58.158Z,985.75
2018-02-14T08:19:58.117Z,985.74
2018-02-14T08:20:58.104Z,985.73
2018-02-14T08:21:58.059Z,985.74
2018-02-14T08:22:57.892Z,985.71
2018-02-14T08:23:57.987Z,985.71
2018-02-14T08:24:57.804Z,985.74
2018-02-14T08:25:57.847Z,985.74
2018-02-14T08:26:57.752Z,985.71
2018-02-14T08:27:57.772Z,985.70
2018-02-14T08:28:57.809Z,985.70
2018-02-14T08:29:57.646Z,985.69
2018-02-14T08:30:57.497Z,985.76
2018-02-14T08:31:57.602Z,985.71
2018-02-14T08:32:57.523Z,985.74
2018-02-14T08:33:57.529Z,985.69
2018-02-14T08:34:57.312Z,985.72
2018-02-14T08:35:57.276Z,985.71
2018-02-14T08:36:57.278Z,985.71
2018-02-14T08:37:57.217Z,985.70
2018-02-14T08:38:57.327Z,985.73
2018-02-14T08:39:57.204Z,985.72
2018-02-14T08:40:57.086Z,985.68
2018-02-14T08:41:57.088Z,985.71
2018-02-14T08:42:57.190Z,985.72
2018-02-14T08:43:57.069Z,985.72
2018-02-14T08:44:56.883Z,985.74
2018-02-14T08:45:56.996Z,985.70
2018-02-14T08:46:56.803Z,985.79
2018-02-14T08:47:56.860Z,985.79
2018-02-14T08:48:57.394Z,985.80
2018-02-14T08:49:56.799Z,985.84
2018-02-14T08:50:56.753Z,985.79
2018-02-14T08:51:56.618Z,985.78
2018-02-14T08:52:56.656Z,985.78
2018-02-14T08:53:56.647Z,985.80
2018-02-14T08:54:56.600Z,985.78
2018-02-14T08:55:56.548Z,985.84
2018-02-14T08:56:56.492Z,985.83
2018-02-14T08:57:56.361Z,985.85
2018-02-14T08:58:56.299Z,985.84
2018-02-14T08:59:56.412Z,985.88
2018-02-14T09:00:56.273Z,985.91
2018-02-14T09:01:56.362Z,985.88
2018-02-14T09:02:56.323Z,985.91
2018-02-14T09:03:56.205Z,985.94
2018-02-14T09:04:56.109Z,985.90
2018-02-14T09:05:56.180Z,985.95
2018-02-14T09:06:56.147Z,985.89
2018-02-14T09:07:56.001Z,985.92
2018-02-14T09:08:55.966Z,985.95
2018-02-14T09:09:56.005Z,985.95
2018-02-14T09:10:55.920Z,985.98
2018-02-14T09:11:55.863Z,985.98
2018-02-14T09:12:55.932Z,985.97
2018-02-14T09:13:55.901Z,985.94
2018-02-14T09:14:55.865Z,985.97
2018-02-14T09:15:55.881Z,985.98
2018-02-14T09:16:55.682Z,985.96
2018-02-14T09:17:55.639Z,985.97
2018-02-14T09:18:55.651Z,985.98
2018-02-14T09:19:55.585Z,985.96
2018-02-14T09:20:55.583Z,985.98
2018-02-14T09:21:55.627Z,985.98
2018-02-14T09:22:55.536Z,985.97
2018-02-14T09:23:55.591Z,986.02
2018-02-14T09:24:55.906Z,986.00
2018-02-14T09:25:55.452Z,986.02
2018-02-14T09:26:55.400Z,986.02
2018-02-14T09:27:55.320Z,985.99
2018-02-14T09:28:55.231Z,986.02
2018-02-14T09:29:55.206Z,986.03
2018-02-14T09:30:55.250Z,986.05
2018-02-14T09:31:55.156Z,986.09
2018-02-14T09:32:55.908Z,986.05
2018-02-14T09:33:55.046Z,986.08
2018-02-14T09:34:55.068Z,986.09
2018-02-14T09:35:55.084Z,986.09
2018-02-14T09:36:54.964Z,986.05
2018-02-14T09:37:54.946Z,986.10
2018-02-14T09:38:55.419Z,986.02
2018-02-14T09:39:54.971Z,986.05
2018-02-14T09:40:54.917Z,986.08
2018-02-14T09:41:54.935Z,986.06
2018-02-14T09:42:54.775Z,986.06
2018-02-14T09:43:54.866Z,986.11
2018-02-14T09:44:54.800Z,986.06
2018-02-14T09:45:54.686Z,986.09
2018-02-14T09:46:54.759Z,986.11
2018-02-14T09:47:54.729Z,986.10
2018-02-14T09:48:54.565Z,986.14
2018-02-14T09:49:54.664Z,986.13
2018-02-14T09:50:54.478Z,986.19
2018-02-14T09:51:54.478Z,986.17
2018-02-14T09:52:54.469Z,986.20
2018-02-14T09:53:54.447Z,986.24
2018-02-14T09:54:54.497Z,986.23
2018-02-14T09:55:54.366Z,986.23
2018-02-14T09:56:54.297Z,986.28
2018-02-14T09:57:54.418Z,986.27
2018-02-14T09:58:54.318Z,986.24
2018-02-14T09:59:54.306Z,986.27
2018-02-14T10:00:54.307Z,986.26
2018-02-14T10:01:54.228Z,986.31
2018-02-14T10:02:54.270Z,986.34
2018-02-14T10:03:54.137Z,986.34
2018-02-14T10:04:54.074Z,986.38
2018-02-14T10:05:54.033Z,986.35
2018-02-14T10:06:54.010Z,986.36
2018-02-14T10:07:54.102Z,986.36
2018-02-14T10:08:54.112Z,986.38
2018-02-14T10:09:54.030Z,986.32
2018-02-14T10:10:54.045Z,986.38
2018-02-14T10:11:54.048Z,986.40
2018-02-14T10:12:54.425Z,986.37
2018-02-14T10:13:53.859Z,986.38
2018-02-14T10:14:53.783Z,986.38
2018-02-14T10:15:53.733Z,986.36
2018-02-14T10:16:53.742Z,986.35
2018-02-14T10:17:53.722Z,986.36
2018-02-14T10:18:53.668Z,986.33
2018-02-14T10:19:53.632Z,986.35
2018-02-14T10:20:53.730Z,986.35
2018-02-14T10:21:53.558Z,986.38
2018-02-14T10:22:53.592Z,986.37
2018-02-14T10:23:53.654Z,986.35
2018-02-14T10:24:53.512Z,986.31
2018-02-14T10:25:53.551Z,986.35
2018-02-14T10:26:53.925Z,986.39
2018-02-14T10:27:53.494Z,986.36
2018-02-14T10:28:53.384Z,986.42
2018-02-14T10:29:53.385Z,986.41
2018-02-14T10:30:53.425Z,986.43
2018-02-14T10:31:53.267Z,986.42
2018-02-14T10:32:53.312Z,986.44
2018-02-14T10:33:53.290Z,986.41
2018-02-14T10:34:53.202Z,986.39
2018-02-14T10:35:53.169Z,986.37
2018-02-14T10:36:53.251Z,986.38
2018-02-14T10:37:53.929Z,986.34
2018-02-14T10:38:53.112Z,986.33
2018-02-14T10:39:53.934Z,986.35
2018-02-14T10:40:53.091Z,986.30
2018-02-14T10:41:53.024Z,986.29
2018-02-14T10:42:53.013Z,986.28
2018-02-14T10:43:53.032Z,986.27
2018-02-14T10:44:52.992Z,986.31
2018-02-14T10:45:52.994Z,986.28
2018-02-14T10:46:52.981Z,986.27
2018-02-14T10:47:53.443Z,986.27
2018-02-14T10:48:52.942Z,986.23
2018-02-14T10:49:52.774Z,986.24
2018-02-14T10:50:52.760Z,986.22
2018-02-14T10:51:52.731Z,986.29
2018-02-14T10:52:52.808Z,986.24
2018-02-14T10:53:52.690Z,986.23
2018-02-14T10:54:52.607Z,986.25
2018-02-14T10:55:52.736Z,986.29
2018-02-14T10:56:52.604Z,986.25
2018-02-14T10:57:52.675Z,986.29
2018-02-14T10:58:52.505Z,986.33
2018-02-14T10:59:52.629Z,986.22
2018-02-14T11:00:52.464Z,986.24
2018-02-14T11:01:52.403Z,986.30
2018-02-14T11:02:52.478Z,986.27
2018-02-14T11:03:52.391Z,986.25
2018-02-14T11:04:52.478Z,986.28
2018-02-14T11:05:52.385Z,986.31
2018-02-14T11:06:52.328Z,986.27
2018-02-14T11:07:52.256Z,986.29
2018-02-14T11:08:52.318Z,986.28
2018-02-14T11:09:52.339Z,986.28
2018-02-14T11:10:52.177Z,986.26
2018-02-14T11:11:52.136Z,986.28
2018-02-14T11:12:52.116Z,986.24
2018-02-14T11:13:52.085Z,986.26
2018-02-14T11:14:52.086Z,986.25
2018-02-14T11:15:52.069Z,986.27
2018-02-14T11:16:52.002Z,986.30
2018-02-14T11:17:52.087Z,986.26
2018-02-14T11:18:51.988Z,986.30
2018-02-14T11:19:51.980Z,986.27
2018-02-14T11:20:52.004Z,986.29
2018-02-14T11:21:51.900Z,986.32
2018-02-14T11:22:52.450Z,986.31
2018-02-14T11:23:51.804Z,986.37
2018-02-14T11:24:52.453Z,986.34
2018-02-14T11:25:51.855Z,986.37
2018-02-14T11:26:51.852Z,986.37
2018-02-14T11:27:51.674Z,986.35
2018-02-14T11:28:51.729Z,986.37
2018-02-14T11:29:51.659Z,986.37
2018-02-14T11:30:51.601Z,986.39
2018-02-14T11:31:51.599Z,986.34
2018-02-14T11:32:51.629Z,986.39
2018-02-14T11:33:51.532Z,986.43
2018-02-14T11:34:51.532Z,986.43
2018-02-14T11:35:51.535Z,986.41
2018-02-14T11:36:51.473Z,986.43
2018-02-14T11:37:51.503Z,986.44
2018-02-14T11:38:51.531Z,986.41
2018-02-14T11:39:51.455Z,986.46
2018-02-14T11:40:51.333Z,986.47
2018-02-14T11:41:51.480Z,986.45
2018-02-14T11:42:51.271Z,986.45
2018-02-14T11:43:51.275Z,986.45
2018-02-14T11:44:51.962Z,986.41
2018-02-14T11:45:51.283Z,986.45
2018-02-14T11:46:51.293Z,986.43
2018-02-14T11:47:51.158Z,986.44
2018-02-14T11:48:51.140Z,986.44
2018-02-14T11:49:51.108Z,986.43
2018-02-14T11:50:51.180Z,986.45
2018-02-14T11:51:51.172Z,986.46
2018-02-14T11:52:51.012Z,986.42
2018-02-14T11:53:51.019Z,986.44
2018-02-14T11:54:50.965Z,986.40
2018-02-14T11:55:50.924Z,986.44
2018-02-14T11:56:51.049Z,986.47
2018-02-14T11:57:50.869Z,986.42
2018-02-14T11:58:50.861Z,986.45
2018-02-14T11:59:50.921Z,986.40
2018-02-14T12:00:50.960Z,986.43
2018-02-14T12:01:51.472Z,986.41
2018-02-14T12:02:50.854Z,986.42
2018-02-14T12:03:51.470Z,986.43
2018-02-14T12:04:50.756Z,986.46
2018-02-14T12:05:50.828Z,986.47
2018-02-14T12:06:50.770Z,986.44
2018-02-14T12:07:50.657Z,986.42
2018-02-14T12:08:50.636Z,986.41
2018-02-14T12:09:50.712Z,986.42
2018-02-14T12:10:50.531Z,986.43
2018-02-14T12:11:50.525Z,986.38
2018-02-14T12:12:50.442Z,986.37
2018-02-14T12:13:50.433Z,986.31
2018-02-14T12:14:50.556Z,986.30
2018-02-14T12:15:50.385Z,986.31
2018-02-14T12:16:50.405Z,986.32
2018-02-14T12:17:50.471Z,986.32
2018-02-14T12:18:50.320Z,986.35
2018-02-14T12:19:50.280Z,986.30
2018-02-14T12:20:50.260Z,986.30
2018-02-14T12:21:50.206Z,986.28
2018-02-14T12:22:50.227Z,986.23
2018-02-14T12:23:50.177Z,986.28
2018-02-14T12:24:50.145Z,986.30
2018-02-14T12:25:50.107Z,986.29
2018-02-14T12:26:50.075Z,986.32
2018-02-14T12:27:50.102Z,986.31